Como, TN (38223)

3:01 AM CST on February 13, 2016 (GMT -0600)
54 Lawn | | Change Station
CLOSE
Current Station
Personal Weather Station
Location: Paris, TN
Elevation: 499 ft
Nearby Weather Stations

Elev 499 ft 36.29 °N, 88.42 °W | Updated 6 seconds ago

Clear
Clear
22.8 °F
Feels Like 23 °F
N
0.0
Wind Variable Wind from NE
Gusts 2.0 mph

Today
High -- | Low -- °F
--% Chance of Precip.
Yesterday
High -- | Low -- °F
Precip. -- in
Pressure 30.48 in
Visibility 10.0 miles
Clouds Clear
Windchill 23 °F
Dew Point 15 °F
Humidity 71%
Rainfall 0.00 in
Snow Depth Not available.
6:44 AM 5:32 PM
Waxing Crescent, 28% visible
METAR KCEY 130855Z AUTO 36009G18KT 10SM CLR M06/M12 A3048 RMK AO1
Pressure 30.48 in
Visibility 10.0 miles
Clouds Clear
Windchill 23 °F
Dew Point 15 °F
Humidity 71%
Rainfall 0.00 in
Snow Depth Not available.
6:44 AM 5:32 PM
Waxing Crescent, 28% visible
METAR KCEY 130855Z AUTO 36009G18KT 10SM CLR M06/M12 A3048 RMK AO1

10-Day Weather Forecast

Almanac

Astronomy

Feb. 13, 2016 Rise Set
Actual Time
Civil Twilight
Nautical Twilight
Astronomical Twilight
Moon
Length of Visible Light
Length of Day
Tomorrow will be .
, % of the Moon is Illuminated

Today's Extremes

State Highs State Lows

Community

WunderPhotos

Upload Photos

1,892,536 photos uploaded!

WunderBlog® & News

Nearby

Air Quality

  Air Quality AQ Index Pollutant
Not available.

Snow Depth

Station Depth Elevation

Earthquake Activity

City Distance Mag. Time & Date
Minimum magnitude displayed is 2.5.

Coastal Water Temperatures

Place Temperature

Stations

Nearby Weather Stations

Station Location Temp. Windchill Dew Point Humidity Wind Precip. Elev Updated Type
                   

Watches & Warnings

There are currently no watches in effect.